sensor_id;sensor_type;location;lat;lon;timestamp;temperature;humidity
67820;DHT22;54618;52.018;5.576;2023-12-20T00:08:27;6.30;95.70
67820;DHT22;54618;52.018;5.576;2023-12-20T00:11:04;6.20;95.60
67820;DHT22;54618;52.018;5.576;2023-12-20T00:16:31;6.10;95.60
67820;DHT22;54618;52.018;5.576;2023-12-20T00:19:34;6.10;95.80
67820;DHT22;54618;52.018;5.576;2023-12-20T00:22:19;6.00;95.80
67820;DHT22;54618;52.018;5.576;2023-12-20T00:25:07;6.00;95.80
67820;DHT22;54618;52.018;5.576;2023-12-20T00:27:36;5.90;95.80
67820;DHT22;54618;52.018;5.576;2023-12-20T00:30:13;5.90;95.70
67820;DHT22;54618;52.018;5.576;2023-12-20T00:33:04;5.80;95.80
67820;DHT22;54618;52.018;5.576;2023-12-20T00:35:32;5.70;95.80
67820;DHT22;54618;52.018;5.576;2023-12-20T00:38:03;5.70;95.80
67820;DHT22;54618;52.018;5.576;2023-12-20T00:40:30;5.70;95.80
67820;DHT22;54618;52.018;5.576;2023-12-20T00:42:57;5.60;95.80
67820;DHT22;54618;52.018;5.576;2023-12-20T00:45:32;5.60;95.80
67820;DHT22;54618;52.018;5.576;2023-12-20T00:48:09;5.50;95.80
67820;DHT22;54618;52.018;5.576;2023-12-20T00:50:38;5.50;95.80
67820;DHT22;54618;52.018;5.576;2023-12-20T00:53:09;5.50;95.80
67820;DHT22;54618;52.018;5.576;2023-12-20T00:55:45;5.50;95.80
67820;DHT22;54618;52.018;5.576;2023-12-20T01:00:48;5.40;95.80
67820;DHT22;54618;52.018;5.576;2023-12-20T01:03:15;5.40;95.80
67820;DHT22;54618;52.018;5.576;2023-12-20T01:05:41;5.40;95.80
67820;DHT22;54618;52.018;5.576;2023-12-20T01:08:07;5.30;95.70
67820;DHT22;54618;52.018;5.576;2023-12-20T01:10:35;5.30;95.70
67820;DHT22;54618;52.018;5.576;2023-12-20T01:13:01;5.30;95.70
67820;DHT22;54618;52.018;5.576;2023-12-20T01:15:34;5.30;95.70
67820;DHT22;54618;52.018;5.576;2023-12-20T01:29:35;5.20;95.60
67820;DHT22;54618;52.018;5.576;2023-12-20T01:32:01;5.20;95.60
67820;DHT22;54618;52.018;5.576;2023-12-20T01:37:03;5.10;95.50
67820;DHT22;54618;52.018;5.576;2023-12-20T01:39:29;5.10;95.60
67820;DHT22;54618;52.018;5.576;2023-12-20T01:41:55;5.10;95.60
67820;DHT22;54618;52.018;5.576;2023-12-20T01:44:21;5.10;95.50
67820;DHT22;54618;52.018;5.576;2023-12-20T01:46:47;5.10;95.50
67820;DHT22;54618;52.018;5.576;2023-12-20T01:49:14;5.10;95.50
67820;DHT22;54618;52.018;5.576;2023-12-20T01:51:40;5.10;95.50
67820;DHT22;54618;52.018;5.576;2023-12-20T01:54:06;5.20;95.50
67820;DHT22;54618;52.018;5.576;2023-12-20T01:56:35;5.20;95.40
67820;DHT22;54618;52.018;5.576;2023-12-20T01:59:01;5.30;95.40
67820;DHT22;54618;52.018;5.576;2023-12-20T02:01:28;5.30;95.30
67820;DHT22;54618;52.018;5.576;2023-12-20T02:03:55;5.30;95.30
67820;DHT22;54618;52.018;5.576;2023-12-20T02:06:23;5.40;95.20
67820;DHT22;54618;52.018;5.576;2023-12-20T02:08:50;5.40;95.10
67820;DHT22;54618;52.018;5.576;2023-12-20T02:11:16;5.50;95.10
67820;DHT22;54618;52.018;5.576;2023-12-20T02:13:42;5.50;95.00
67820;DHT22;54618;52.018;5.576;2023-12-20T02:16:08;5.50;94.90
67820;DHT22;54618;52.018;5.576;2023-12-20T02:18:34;5.50;94.90
67820;DHT22;54618;52.018;5.576;2023-12-20T02:20:59;5.50;94.90
67820;DHT22;54618;52.018;5.576;2023-12-20T02:23:25;5.50;94.90
67820;DHT22;54618;52.018;5.576;2023-12-20T02:25:54;5.60;94.90
67820;DHT22;54618;52.018;5.576;2023-12-20T02:28:20;5.60;94.90
67820;DHT22;54618;52.018;5.576;2023-12-20T02:30:48;5.70;95.10
67820;DHT22;54618;52.018;5.576;2023-12-20T02:33:15;5.70;94.90
67820;DHT22;54618;52.018;5.576;2023-12-20T02:35:41;5.70;94.80
67820;DHT22;54618;52.018;5.576;2023-12-20T02:38:07;5.70;94.80
67820;DHT22;54618;52.018;5.576;2023-12-20T02:40:33;5.80;94.80
67820;DHT22;54618;52.018;5.576;2023-12-20T02:42:59;5.80;94.80
67820;DHT22;54618;52.018;5.576;2023-12-20T02:45:26;5.80;94.80
67820;DHT22;54618;52.018;5.576;2023-12-20T02:47:52;5.80;94.80
67820;DHT22;54618;52.018;5.576;2023-12-20T02:50:19;5.90;94.70
67820;DHT22;54618;52.018;5.576;2023-12-20T02:52:45;5.80;94.70
67820;DHT22;54618;52.018;5.576;2023-12-20T02:55:11;5.80;94.90
67820;DHT22;54618;52.018;5.576;2023-12-20T02:57:37;5.80;94.80
67820;DHT22;54618;52.018;5.576;2023-12-20T03:00:08;5.80;94.90
67820;DHT22;54618;52.018;5.576;2023-12-20T03:02:35;5.70;94.90
67820;DHT22;54618;52.018;5.576;2023-12-20T03:05:01;5.70;94.90
67820;DHT22;54618;52.018;5.576;2023-12-20T03:07:27;5.70;95.00
67820;DHT22;54618;52.018;5.576;2023-12-20T03:09:52;5.70;95.00
67820;DHT22;54618;52.018;5.576;2023-12-20T03:12:18;5.70;95.00
67820;DHT22;54618;52.018;5.576;2023-12-20T03:14:44;5.70;95.00
67820;DHT22;54618;52.018;5.576;2023-12-20T03:17:10;5.70;95.00
67820;DHT22;54618;52.018;5.576;2023-12-20T03:19:36;5.70;95.00
67820;DHT22;54618;52.018;5.576;2023-12-20T03:22:01;5.80;95.00
67820;DHT22;54618;52.018;5.576;2023-12-20T03:24:27;5.80;95.10
67820;DHT22;54618;52.018;5.576;2023-12-20T03:26:53;5.70;95.00
67820;DHT22;54618;52.018;5.576;2023-12-20T03:29:19;5.70;95.00
67820;DHT22;54618;52.018;5.576;2023-12-20T03:31:45;5.80;95.10
67820;DHT22;54618;52.018;5.576;2023-12-20T03:34:11;5.80;95.10
67820;DHT22;54618;52.018;5.576;2023-12-20T03:36:37;5.80;95.10
67820;DHT22;54618;52.018;5.576;2023-12-20T03:39:03;5.80;95.10
67820;DHT22;54618;52.018;5.576;2023-12-20T03:41:29;5.80;95.10
67820;DHT22;54618;52.018;5.576;2023-12-20T03:43:55;5.80;95.10
67820;DHT22;54618;52.018;5.576;2023-12-20T03:46:20;5.80;95.10
67820;DHT22;54618;52.018;5.576;2023-12-20T03:48:47;5.70;95.10
67820;DHT22;54618;52.018;5.576;2023-12-20T03:51:12;5.70;95.10
67820;DHT22;54618;52.018;5.576;2023-12-20T03:53:38;5.70;95.10
67820;DHT22;54618;52.018;5.576;2023-12-20T03:56:06;5.70;95.30
67820;DHT22;54618;52.018;5.576;2023-12-20T03:58:32;5.80;95.30
67820;DHT22;54618;52.018;5.576;2023-12-20T04:00:58;5.80;95.20
67820;DHT22;54618;52.018;5.576;2023-12-20T04:03:23;5.80;95.20
67820;DHT22;54618;52.018;5.576;2023-12-20T04:05:49;5.80;95.10
67820;DHT22;54618;52.018;5.576;2023-12-20T04:08:15;5.80;95.20
67820;DHT22;54618;52.018;5.576;2023-12-20T04:10:41;5.80;95.10
67820;DHT22;54618;52.018;5.576;2023-12-20T04:13:07;5.80;95.20
67820;DHT22;54618;52.018;5.576;2023-12-20T04:15:33;5.80;95.10
67820;DHT22;54618;52.018;5.576;2023-12-20T04:17:59;5.80;95.10
67820;DHT22;54618;52.018;5.576;2023-12-20T04:20:24;5.80;95.10
67820;DHT22;54618;52.018;5.576;2023-12-20T04:22:50;5.80;95.10
67820;DHT22;54618;52.018;5.576;2023-12-20T04:25:16;5.80;95.10
67820;DHT22;54618;52.018;5.576;2023-12-20T04:27:42;5.80;95.10
67820;DHT22;54618;52.018;5.576;2023-12-20T04:30:08;5.90;95.40
67820;DHT22;54618;52.018;5.576;2023-12-20T04:35:09;6.00;95.20
67820;DHT22;54618;52.018;5.576;2023-12-20T04:37:38;6.00;95.00
67820;DHT22;54618;52.018;5.576;2023-12-20T04:40:07;6.00;94.90
67820;DHT22;54618;52.018;5.576;2023-12-20T04:42:34;6.00;94.90
67820;DHT22;54618;52.018;5.576;2023-12-20T04:45:00;6.10;94.90
67820;DHT22;54618;52.018;5.576;2023-12-20T04:47:26;6.10;94.90
67820;DHT22;54618;52.018;5.576;2023-12-20T04:49:52;6.10;94.90
67820;DHT22;54618;52.018;5.576;2023-12-20T04:52:20;6.20;94.80
67820;DHT22;54618;52.018;5.576;2023-12-20T04:54:46;6.20;94.80
67820;DHT22;54618;52.018;5.576;2023-12-20T04:57:12;6.30;94.80
67820;DHT22;54618;52.018;5.576;2023-12-20T04:59:38;6.30;94.70
67820;DHT22;54618;52.018;5.576;2023-12-20T05:02:04;6.30;94.70
67820;DHT22;54618;52.018;5.576;2023-12-20T05:04:33;6.30;94.80
67820;DHT22;54618;52.018;5.576;2023-12-20T05:06:59;6.40;94.70
67820;DHT22;54618;52.018;5.576;2023-12-20T05:09:28;6.40;94.70
67820;DHT22;54618;52.018;5.576;2023-12-20T05:11:55;6.40;94.70
67820;DHT22;54618;52.018;5.576;2023-12-20T05:14:21;6.50;94.70
67820;DHT22;54618;52.018;5.576;2023-12-20T05:16:49;6.50;94.70
67820;DHT22;54618;52.018;5.576;2023-12-20T05:19:15;6.60;94.70
67820;DHT22;54618;52.018;5.576;2023-12-20T05:21:41;6.60;94.70
67820;DHT22;54618;52.018;5.576;2023-12-20T05:24:09;6.60;94.70
67820;DHT22;54618;52.018;5.576;2023-12-20T05:26:39;6.70;94.70
67820;DHT22;54618;52.018;5.576;2023-12-20T05:29:05;6.70;94.70
67820;DHT22;54618;52.018;5.576;2023-12-20T05:31:33;6.70;94.70
67820;DHT22;54618;52.018;5.576;2023-12-20T05:34:01;6.70;94.60
67820;DHT22;54618;52.018;5.576;2023-12-20T05:36:28;6.70;94.60
67820;DHT22;54618;52.018;5.576;2023-12-20T05:38:54;6.80;94.60
67820;DHT22;54618;52.018;5.576;2023-12-20T05:41:20;6.80;94.60
67820;DHT22;54618;52.018;5.576;2023-12-20T05:43:49;6.80;94.60
67820;DHT22;54618;52.018;5.576;2023-12-20T05:46:14;6.80;94.70
67820;DHT22;54618;52.018;5.576;2023-12-20T05:48:40;6.80;94.70
67820;DHT22;54618;52.018;5.576;2023-12-20T05:51:06;6.80;94.60
67820;DHT22;54618;52.018;5.576;2023-12-20T05:53:35;6.90;94.60
67820;DHT22;54618;52.018;5.576;2023-12-20T05:56:02;6.90;94.60
67820;DHT22;54618;52.018;5.576;2023-12-20T05:58:28;6.90;94.70
67820;DHT22;54618;52.018;5.576;2023-12-20T06:00:54;6.90;94.70
67820;DHT22;54618;52.018;5.576;2023-12-20T06:03:20;6.90;94.70
67820;DHT22;54618;52.018;5.576;2023-12-20T06:06:09;6.90;94.70
67820;DHT22;54618;52.018;5.576;2023-12-20T06:08:36;6.90;94.70
67820;DHT22;54618;52.018;5.576;2023-12-20T06:11:10;7.00;94.80
67820;DHT22;54618;52.018;5.576;2023-12-20T06:13:39;6.90;94.80
67820;DHT22;54618;52.018;5.576;2023-12-20T06:16:09;7.00;94.80
67820;DHT22;54618;52.018;5.576;2023-12-20T06:18:35;6.90;94.70
67820;DHT22;54618;52.018;5.576;2023-12-20T06:21:02;7.00;94.80
67820;DHT22;54618;52.018;5.576;2023-12-20T06:26:02;7.00;94.70
67820;DHT22;54618;52.018;5.576;2023-12-20T06:28:28;7.00;94.70
67820;DHT22;54618;52.018;5.576;2023-12-20T06:33:29;7.00;94.70
67820;DHT22;54618;52.018;5.576;2023-12-20T06:35:56;7.00;94.70
67820;DHT22;54618;52.018;5.576;2023-12-20T06:38:22;7.10;94.70
67820;DHT22;54618;52.018;5.576;2023-12-20T06:40:48;7.10;94.70
67820;DHT22;54618;52.018;5.576;2023-12-20T06:43:14;7.10;94.70
67820;DHT22;54618;52.018;5.576;2023-12-20T06:45:39;7.10;94.70
67820;DHT22;54618;52.018;5.576;2023-12-20T06:48:06;7.10;94.70
67820;DHT22;54618;52.018;5.576;2023-12-20T06:50:37;7.10;94.70
67820;DHT22;54618;52.018;5.576;2023-12-20T06:53:06;7.10;94.70
67820;DHT22;54618;52.018;5.576;2023-12-20T06:55:33;7.10;94.70
67820;DHT22;54618;52.018;5.576;2023-12-20T06:58:01;7.10;94.70
67820;DHT22;54618;52.018;5.576;2023-12-20T07:00:26;7.10;94.60
67820;DHT22;54618;52.018;5.576;2023-12-20T07:02:58;7.10;94.60
67820;DHT22;54618;52.018;5.576;2023-12-20T07:05:24;7.20;94.60
67820;DHT22;54618;52.018;5.576;2023-12-20T07:07:50;7.20;94.60
67820;DHT22;54618;52.018;5.576;2023-12-20T07:10:16;7.20;94.60
67820;DHT22;54618;52.018;5.576;2023-12-20T07:12:42;7.10;94.60
67820;DHT22;54618;52.018;5.576;2023-12-20T07:15:08;7.20;94.70
67820;DHT22;54618;52.018;5.576;2023-12-20T07:17:36;7.20;94.70
67820;DHT22;54618;52.018;5.576;2023-12-20T07:20:02;7.20;94.70
67820;DHT22;54618;52.018;5.576;2023-12-20T07:22:30;7.20;94.60
67820;DHT22;54618;52.018;5.576;2023-12-20T07:25:00;7.20;94.60
67820;DHT22;54618;52.018;5.576;2023-12-20T07:27:29;7.20;94.60
67820;DHT22;54618;52.018;5.576;2023-12-20T07:29:55;7.20;94.60
67820;DHT22;54618;52.018;5.576;2023-12-20T07:32:21;7.20;94.60
67820;DHT22;54618;52.018;5.576;2023-12-20T07:34:49;7.30;94.60
67820;DHT22;54618;52.018;5.576;2023-12-20T07:37:17;7.30;94.60
67820;DHT22;54618;52.018;5.576;2023-12-20T07:39:46;7.30;94.60
67820;DHT22;54618;52.018;5.576;2023-12-20T07:42:12;7.30;94.60
67820;DHT22;54618;52.018;5.576;2023-12-20T07:44:38;7.30;94.60
67820;DHT22;54618;52.018;5.576;2023-12-20T07:47:04;7.30;94.60
67820;DHT22;54618;52.018;5.576;2023-12-20T07:49:33;7.30;94.60
67820;DHT22;54618;52.018;5.576;2023-12-20T07:51:58;7.30;94.60
67820;DHT22;54618;52.018;5.576;2023-12-20T07:54:24;7.40;94.80
67820;DHT22;54618;52.018;5.576;2023-12-20T07:56:51;7.40;94.60
67820;DHT22;54618;52.018;5.576;2023-12-20T07:59:32;7.30;94.60
67820;DHT22;54618;52.018;5.576;2023-12-20T08:02:16;7.40;94.60
67820;DHT22;54618;52.018;5.576;2023-12-20T08:04:45;7.40;94.60
67820;DHT22;54618;52.018;5.576;2023-12-20T08:07:20;7.40;94.60
67820;DHT22;54618;52.018;5.576;2023-12-20T08:10:09;7.40;94.60
67820;DHT22;54618;52.018;5.576;2023-12-20T08:12:36;7.40;94.50
67820;DHT22;54618;52.018;5.576;2023-12-20T08:15:10;7.40;94.60
67820;DHT22;54618;52.018;5.576;2023-12-20T08:17:36;7.40;94.60
67820;DHT22;54618;52.018;5.576;2023-12-20T08:20:03;7.50;94.60
67820;DHT22;54618;52.018;5.576;2023-12-20T08:22:32;7.50;94.60
67820;DHT22;54618;52.018;5.576;2023-12-20T08:24:59;7.50;94.60
67820;DHT22;54618;52.018;5.576;2023-12-20T08:27:26;7.50;94.60
67820;DHT22;54618;52.018;5.576;2023-12-20T08:29:55;7.50;94.60
67820;DHT22;54618;52.018;5.576;2023-12-20T08:32:30;7.50;94.50
67820;DHT22;54618;52.018;5.576;2023-12-20T08:34:57;7.50;94.60
67820;DHT22;54618;52.018;5.576;2023-12-20T08:37:24;7.60;94.60
67820;DHT22;54618;52.018;5.576;2023-12-20T08:39:53;7.60;94.60
67820;DHT22;54618;52.018;5.576;2023-12-20T08:42:21;7.60;94.50
67820;DHT22;54618;52.018;5.576;2023-12-20T08:44:48;7.60;94.50
67820;DHT22;54618;52.018;5.576;2023-12-20T08:47:17;7.60;94.50
67820;DHT22;54618;52.018;5.576;2023-12-20T08:49:46;7.60;94.50
67820;DHT22;54618;52.018;5.576;2023-12-20T08:52:12;7.60;94.50
67820;DHT22;54618;52.018;5.576;2023-12-20T08:54:38;7.60;94.60
67820;DHT22;54618;52.018;5.576;2023-12-20T08:57:04;7.70;94.60
67820;DHT22;54618;52.018;5.576;2023-12-20T08:59:32;7.70;94.50
67820;DHT22;54618;52.018;5.576;2023-12-20T09:01:58;7.70;94.50
67820;DHT22;54618;52.018;5.576;2023-12-20T09:04:23;7.70;94.50
67820;DHT22;54618;52.018;5.576;2023-12-20T09:06:50;7.70;94.50
67820;DHT22;54618;52.018;5.576;2023-12-20T09:09:15;7.70;94.50
67820;DHT22;54618;52.018;5.576;2023-12-20T09:11:41;7.70;94.50
67820;DHT22;54618;52.018;5.576;2023-12-20T09:14:08;7.70;94.60
67820;DHT22;54618;52.018;5.576;2023-12-20T09:16:33;7.70;94.60
67820;DHT22;54618;52.018;5.576;2023-12-20T09:18:59;7.70;94.70
67820;DHT22;54618;52.018;5.576;2023-12-20T09:21:25;7.70;94.70
67820;DHT22;54618;52.018;5.576;2023-12-20T09:23:51;7.70;94.70
67820;DHT22;54618;52.018;5.576;2023-12-20T09:26:17;7.70;94.70
67820;DHT22;54618;52.018;5.576;2023-12-20T09:28:43;7.70;94.80
67820;DHT22;54618;52.018;5.576;2023-12-20T09:31:09;7.70;94.80
67820;DHT22;54618;52.018;5.576;2023-12-20T09:33:37;7.70;94.80
67820;DHT22;54618;52.018;5.576;2023-12-20T09:36:03;7.70;94.90
67820;DHT22;54618;52.018;5.576;2023-12-20T09:38:29;7.70;94.90
67820;DHT22;54618;52.018;5.576;2023-12-20T09:40:54;7.70;94.90
67820;DHT22;54618;52.018;5.576;2023-12-20T09:43:24;7.70;94.90
67820;DHT22;54618;52.018;5.576;2023-12-20T09:45:53;7.70;94.90
67820;DHT22;54618;52.018;5.576;2023-12-20T09:48:19;7.80;94.90
67820;DHT22;54618;52.018;5.576;2023-12-20T09:50:46;7.80;94.90
67820;DHT22;54618;52.018;5.576;2023-12-20T09:53:15;7.80;94.90
67820;DHT22;54618;52.018;5.576;2023-12-20T09:55:41;7.90;94.90
67820;DHT22;54618;52.018;5.576;2023-12-20T09:58:07;7.90;94.90
67820;DHT22;54618;52.018;5.576;2023-12-20T10:00:34;7.90;94.80
67820;DHT22;54618;52.018;5.576;2023-12-20T10:03:01;8.00;94.80
67820;DHT22;54618;52.018;5.576;2023-12-20T10:05:31;8.00;94.80
67820;DHT22;54618;52.018;5.576;2023-12-20T10:07:58;8.00;94.80
67820;DHT22;54618;52.018;5.576;2023-12-20T10:10:24;8.10;94.70
67820;DHT22;54618;52.018;5.576;2023-12-20T10:15:36;8.20;94.60
67820;DHT22;54618;52.018;5.576;2023-12-20T10:18:03;8.20;94.60
67820;DHT22;54618;52.018;5.576;2023-12-20T10:20:30;8.20;94.60
67820;DHT22;54618;52.018;5.576;2023-12-20T10:23:00;8.20;94.40
67820;DHT22;54618;52.018;5.576;2023-12-20T10:25:26;8.30;94.50
67820;DHT22;54618;52.018;5.576;2023-12-20T10:30:38;8.40;94.50
67820;DHT22;54618;52.018;5.576;2023-12-20T10:33:05;8.40;94.70
67820;DHT22;54618;52.018;5.576;2023-12-20T10:35:31;8.40;94.20
67820;DHT22;54618;52.018;5.576;2023-12-20T10:37:58;8.40;94.30
67820;DHT22;54618;52.018;5.576;2023-12-20T10:40:29;8.50;94.30
67820;DHT22;54618;52.018;5.576;2023-12-20T10:42:56;8.50;94.30
67820;DHT22;54618;52.018;5.576;2023-12-20T10:45:22;8.50;94.30
67820;DHT22;54618;52.018;5.576;2023-12-20T10:47:50;8.50;94.30
67820;DHT22;54618;52.018;5.576;2023-12-20T10:50:16;8.60;94.30
67820;DHT22;54618;52.018;5.576;2023-12-20T10:52:42;8.60;94.20
67820;DHT22;54618;52.018;5.576;2023-12-20T10:55:10;8.70;94.20
67820;DHT22;54618;52.018;5.576;2023-12-20T10:57:36;8.70;94.00
67820;DHT22;54618;52.018;5.576;2023-12-20T11:00:02;8.70;93.60
67820;DHT22;54618;52.018;5.576;2023-12-20T11:02:33;8.80;93.50
67820;DHT22;54618;52.018;5.576;2023-12-20T11:07:42;9.00;93.40
67820;DHT22;54618;52.018;5.576;2023-12-20T11:15:57;9.10;91.20
67820;DHT22;54618;52.018;5.576;2023-12-20T11:18:31;9.20;92.60
67820;DHT22;54618;52.018;5.576;2023-12-20T11:21:02;9.20;93.10
67820;DHT22;54618;52.018;5.576;2023-12-20T11:23:32;9.20;93.20
67820;DHT22;54618;52.018;5.576;2023-12-20T11:26:00;9.30;93.10
67820;DHT22;54618;52.018;5.576;2023-12-20T11:28:27;9.30;92.80
67820;DHT22;54618;52.018;5.576;2023-12-20T11:30:53;9.30;91.90
67820;DHT22;54618;52.018;5.576;2023-12-20T11:33:29;9.30;92.80
67820;DHT22;54618;52.018;5.576;2023-12-20T11:35:56;9.30;91.40
67820;DHT22;54618;52.018;5.576;2023-12-20T11:38:23;9.30;92.30
67820;DHT22;54618;52.018;5.576;2023-12-20T11:40:49;9.30;92.10
67820;DHT22;54618;52.018;5.576;2023-12-20T11:43:38;9.30;92.10
67820;DHT22;54618;52.018;5.576;2023-12-20T11:46:08;9.40;92.40
67820;DHT22;54618;52.018;5.576;2023-12-20T11:48:36;9.40;92.60
67820;DHT22;54618;52.018;5.576;2023-12-20T11:51:10;9.50;92.70
67820;DHT22;54618;52.018;5.576;2023-12-20T11:53:40;9.60;92.00
67820;DHT22;54618;52.018;5.576;2023-12-20T11:56:07;9.70;88.10
67820;DHT22;54618;52.018;5.576;2023-12-20T11:58:36;9.70;91.80
67820;DHT22;54618;52.018;5.576;2023-12-20T12:01:02;9.80;92.20
67820;DHT22;54618;52.018;5.576;2023-12-20T12:03:29;9.80;92.50
67820;DHT22;54618;52.018;5.576;2023-12-20T12:05:55;9.90;91.70
67820;DHT22;54618;52.018;5.576;2023-12-20T12:08:24;9.90;92.20
67820;DHT22;54618;52.018;5.576;2023-12-20T12:10:50;9.90;92.30
67820;DHT22;54618;52.018;5.576;2023-12-20T12:13:16;10.00;92.10
67820;DHT22;54618;52.018;5.576;2023-12-20T12:15:48;10.00;92.60
67820;DHT22;54618;52.018;5.576;2023-12-20T12:18:17;10.00;92.70
67820;DHT22;54618;52.018;5.576;2023-12-20T12:20:43;10.00;92.70
67820;DHT22;54618;52.018;5.576;2023-12-20T12:23:09;9.90;92.70
67820;DHT22;54618;52.018;5.576;2023-12-20T12:25:35;9.90;92.90
67820;DHT22;54618;52.018;5.576;2023-12-20T12:28:05;9.90;93.10
67820;DHT22;54618;52.018;5.576;2023-12-20T12:30:30;9.80;92.70
67820;DHT22;54618;52.018;5.576;2023-12-20T12:32:56;9.80;93.00
67820;DHT22;54618;52.018;5.576;2023-12-20T12:35:23;9.70;92.80
67820;DHT22;54618;52.018;5.576;2023-12-20T12:37:49;9.70;92.90
67820;DHT22;54618;52.018;5.576;2023-12-20T12:40:16;9.70;92.90
67820;DHT22;54618;52.018;5.576;2023-12-20T12:42:44;9.70;92.60
67820;DHT22;54618;52.018;5.576;2023-12-20T12:45:10;9.70;92.90
67820;DHT22;54618;52.018;5.576;2023-12-20T12:47:40;9.70;92.00
67820;DHT22;54618;52.018;5.576;2023-12-20T12:50:06;9.70;91.10
67820;DHT22;54618;52.018;5.576;2023-12-20T12:52:32;9.70;91.50
67820;DHT22;54618;52.018;5.576;2023-12-20T12:54:58;9.70;92.20
67820;DHT22;54618;52.018;5.576;2023-12-20T12:57:24;9.70;92.40
67820;DHT22;54618;52.018;5.576;2023-12-20T12:59:49;9.70;92.40
67820;DHT22;54618;52.018;5.576;2023-12-20T13:02:16;9.80;92.20
67820;DHT22;54618;52.018;5.576;2023-12-20T13:04:42;9.70;92.50
67820;DHT22;54618;52.018;5.576;2023-12-20T13:07:09;9.80;92.90
67820;DHT22;54618;52.018;5.576;2023-12-20T13:09:38;9.80;92.90
67820;DHT22;54618;52.018;5.576;2023-12-20T13:12:04;9.80;92.90
67820;DHT22;54618;52.018;5.576;2023-12-20T13:14:33;9.80;92.60
67820;DHT22;54618;52.018;5.576;2023-12-20T13:16:59;9.80;92.80
67820;DHT22;54618;52.018;5.576;2023-12-20T13:19:24;9.70;92.20
67820;DHT22;54618;52.018;5.576;2023-12-20T13:21:50;9.80;92.90
67820;DHT22;54618;52.018;5.576;2023-12-20T13:24:15;9.70;92.20
67820;DHT22;54618;52.018;5.576;2023-12-20T13:26:41;9.70;92.40
67820;DHT22;54618;52.018;5.576;2023-12-20T13:29:07;9.70;92.50
67820;DHT22;54618;52.018;5.576;2023-12-20T13:31:32;9.70;92.70
67820;DHT22;54618;52.018;5.576;2023-12-20T13:33:58;9.70;93.00
67820;DHT22;54618;52.018;5.576;2023-12-20T13:36:24;9.70;92.70
67820;DHT22;54618;52.018;5.576;2023-12-20T13:38:49;9.60;91.60
67820;DHT22;54618;52.018;5.576;2023-12-20T13:41:15;9.60;92.20
67820;DHT22;54618;52.018;5.576;2023-12-20T13:43:41;9.60;92.70
67820;DHT22;54618;52.018;5.576;2023-12-20T13:46:08;9.60;92.80
67820;DHT22;54618;52.018;5.576;2023-12-20T13:48:34;9.60;92.90
67820;DHT22;54618;52.018;5.576;2023-12-20T13:50:59;9.50;91.90
67820;DHT22;54618;52.018;5.576;2023-12-20T13:53:25;9.50;92.60
67820;DHT22;54618;52.018;5.576;2023-12-20T13:55:51;9.60;92.70
67820;DHT22;54618;52.018;5.576;2023-12-20T13:58:17;9.50;92.50
67820;DHT22;54618;52.018;5.576;2023-12-20T14:00:42;9.60;92.50
67820;DHT22;54618;52.018;5.576;2023-12-20T14:03:08;9.60;92.70
67820;DHT22;54618;52.018;5.576;2023-12-20T14:05:35;9.60;92.70
67820;DHT22;54618;52.018;5.576;2023-12-20T14:08:01;9.60;92.90
67820;DHT22;54618;52.018;5.576;2023-12-20T14:10:26;9.60;92.80
67820;DHT22;54618;52.018;5.576;2023-12-20T14:12:53;9.60;92.70
67820;DHT22;54618;52.018;5.576;2023-12-20T14:15:19;9.60;91.80
67820;DHT22;54618;52.018;5.576;2023-12-20T14:17:44;9.60;91.70
67820;DHT22;54618;52.018;5.576;2023-12-20T14:20:11;9.60;92.30
67820;DHT22;54618;52.018;5.576;2023-12-20T14:22:39;9.60;92.60
67820;DHT22;54618;52.018;5.576;2023-12-20T14:25:11;9.60;92.60
67820;DHT22;54618;52.018;5.576;2023-12-20T14:27:38;9.60;92.70
67820;DHT22;54618;52.018;5.576;2023-12-20T14:30:04;9.50;92.30
67820;DHT22;54618;52.018;5.576;2023-12-20T14:32:31;9.50;92.70
67820;DHT22;54618;52.018;5.576;2023-12-20T14:34:57;9.50;92.80
67820;DHT22;54618;52.018;5.576;2023-12-20T14:37:22;9.50;92.90
67820;DHT22;54618;52.018;5.576;2023-12-20T14:39:48;9.50;92.90
67820;DHT22;54618;52.018;5.576;2023-12-20T14:42:13;9.50;93.00
67820;DHT22;54618;52.018;5.576;2023-12-20T14:44:40;9.40;92.80
67820;DHT22;54618;52.018;5.576;2023-12-20T14:47:06;9.40;93.20
67820;DHT22;54618;52.018;5.576;2023-12-20T14:49:32;9.40;93.00
67820;DHT22;54618;52.018;5.576;2023-12-20T14:51:58;9.40;93.00
67820;DHT22;54618;52.018;5.576;2023-12-20T14:54:25;9.40;93.00
67820;DHT22;54618;52.018;5.576;2023-12-20T14:56:50;9.40;93.10
67820;DHT22;54618;52.018;5.576;2023-12-20T14:59:16;9.30;93.10
67820;DHT22;54618;52.018;5.576;2023-12-20T15:01:43;9.40;93.20
67820;DHT22;54618;52.018;5.576;2023-12-20T15:04:09;9.30;93.20
67820;DHT22;54618;52.018;5.576;2023-12-20T15:06:35;9.30;93.20
67820;DHT22;54618;52.018;5.576;2023-12-20T15:09:01;9.30;93.20
67820;DHT22;54618;52.018;5.576;2023-12-20T15:11:30;9.30;93.20
67820;DHT22;54618;52.018;5.576;2023-12-20T15:13:56;9.20;93.20
67820;DHT22;54618;52.018;5.576;2023-12-20T15:16:22;9.20;93.20
67820;DHT22;54618;52.018;5.576;2023-12-20T15:18:49;9.20;93.30
67820;DHT22;54618;52.018;5.576;2023-12-20T15:21:15;9.20;93.30
67820;DHT22;54618;52.018;5.576;2023-12-20T15:23:41;9.20;93.30
67820;DHT22;54618;52.018;5.576;2023-12-20T15:26:21;9.10;93.30
67820;DHT22;54618;52.018;5.576;2023-12-20T15:28:46;9.10;93.30
67820;DHT22;54618;52.018;5.576;2023-12-20T15:31:12;9.10;93.30
67820;DHT22;54618;52.018;5.576;2023-12-20T15:33:39;9.00;93.30
67820;DHT22;54618;52.018;5.576;2023-12-20T15:36:05;9.00;93.40
67820;DHT22;54618;52.018;5.576;2023-12-20T15:38:31;9.00;93.30
67820;DHT22;54618;52.018;5.576;2023-12-20T15:40:57;9.00;93.40
67820;DHT22;54618;52.018;5.576;2023-12-20T15:43:23;9.00;93.50
67820;DHT22;54618;52.018;5.576;2023-12-20T15:45:48;8.90;93.50
67820;DHT22;54618;52.018;5.576;2023-12-20T15:48:14;8.90;93.50
67820;DHT22;54618;52.018;5.576;2023-12-20T15:50:44;8.90;93.50
67820;DHT22;54618;52.018;5.576;2023-12-20T15:53:10;8.90;93.60
67820;DHT22;54618;52.018;5.576;2023-12-20T15:55:35;8.80;93.60
67820;DHT22;54618;52.018;5.576;2023-12-20T15:58:01;8.80;93.60
67820;DHT22;54618;52.018;5.576;2023-12-20T16:00:28;8.80;93.70
67820;DHT22;54618;52.018;5.576;2023-12-20T16:02:53;8.80;93.70
67820;DHT22;54618;52.018;5.576;2023-12-20T16:05:19;8.70;93.80
67820;DHT22;54618;52.018;5.576;2023-12-20T16:07:45;8.70;93.80
67820;DHT22;54618;52.018;5.576;2023-12-20T16:10:11;8.70;93.90
67820;DHT22;54618;52.018;5.576;2023-12-20T16:12:39;8.70;93.90
67820;DHT22;54618;52.018;5.576;2023-12-20T16:15:05;8.70;93.90
67820;DHT22;54618;52.018;5.576;2023-12-20T16:17:33;8.70;94.00
67820;DHT22;54618;52.018;5.576;2023-12-20T16:20:01;8.70;94.00
67820;DHT22;54618;52.018;5.576;2023-12-20T16:22:26;8.70;94.00
67820;DHT22;54618;52.018;5.576;2023-12-20T16:24:52;8.70;94.00
67820;DHT22;54618;52.018;5.576;2023-12-20T16:27:17;8.60;94.00
67820;DHT22;54618;52.018;5.576;2023-12-20T16:29:43;8.70;94.10
67820;DHT22;54618;52.018;5.576;2023-12-20T16:32:09;8.60;94.00
67820;DHT22;54618;52.018;5.576;2023-12-20T16:34:35;8.60;94.00